createdAt,value
2018-11-02T00:00:51.734Z,11.15
2018-11-02T00:03:20.740Z,11.22
2018-11-02T00:05:49.765Z,11.20
2018-11-02T00:08:18.774Z,11.20
2018-11-02T00:10:47.756Z,11.21
2018-11-02T00:13:16.838Z,11.20
2018-11-02T00:15:45.842Z,11.18
2018-11-02T00:18:14.732Z,11.12
2018-11-02T00:20:43.755Z,11.16
2018-11-02T00:23:12.698Z,11.13
2018-11-02T00:25:41.723Z,11.24
2018-11-02T00:28:10.624Z,11.23
2018-11-02T00:30:39.600Z,11.15
2018-11-02T00:33:10.669Z,11.20
2018-11-02T00:35:39.649Z,11.25
2018-11-02T00:38:08.674Z,11.26
2018-11-02T00:40:37.606Z,11.22
2018-11-02T00:43:06.693Z,11.31
2018-11-02T00:45:35.624Z,11.56
2018-11-02T00:48:04.587Z,11.35
2018-11-02T00:50:33.634Z,11.44
2018-11-02T00:53:02.559Z,11.38
2018-11-02T00:55:31.534Z,11.45
2018-11-02T00:58:00.591Z,11.71
2018-11-02T01:00:29.618Z,11.45
2018-11-02T01:02:58.633Z,11.39
2018-11-02T01:05:27.851Z,11.41
2018-11-02T01:08:01.851Z,11.33
2018-11-02T01:10:28.840Z,11.32
2018-11-02T01:12:57.837Z,11.24
2018-11-02T01:15:26.916Z,11.28
2018-11-02T01:17:57.978Z,11.23
2018-11-02T01:20:24.814Z,11.26
2018-11-02T01:22:53.877Z,11.30
2018-11-02T01:25:22.860Z,11.17
2018-11-02T01:27:51.853Z,11.26
2018-11-02T01:30:20.880Z,11.47
2018-11-02T01:32:49.936Z,11.33
2018-11-02T01:35:21.459Z,11.33
2018-11-02T01:37:52.858Z,11.33
2018-11-02T01:40:21.796Z,11.33
2018-11-02T01:42:51.005Z,11.29
2018-11-02T01:45:27.884Z,11.28
2018-11-02T01:47:55.368Z,11.33
2018-11-02T01:50:24.364Z,11.33
2018-11-02T01:52:53.596Z,11.26
2018-11-02T01:55:22.581Z,11.16
2018-11-02T01:57:53.782Z,11.34
2018-11-02T02:00:22.763Z,11.23
2018-11-02T02:02:51.729Z,11.36
2018-11-02T02:05:20.730Z,11.30
2018-11-02T02:07:52.319Z,11.16
2018-11-02T02:10:24.098Z,11.22
2018-11-02T02:12:59.966Z,11.11
2018-11-02T02:15:24.949Z,11.36
2018-11-02T02:17:54.038Z,11.60
2018-11-02T02:20:23.070Z,11.40
2018-11-02T02:22:52.163Z,11.41
2018-11-02T02:25:21.205Z,11.39
2018-11-02T02:27:50.247Z,11.36
2018-11-02T02:30:19.233Z,11.28
2018-11-02T02:32:48.187Z,11.27
2018-11-02T02:35:17.228Z,11.17
2018-11-02T02:37:46.094Z,11.23
2018-11-02T02:40:15.060Z,11.34
2018-11-02T02:42:43.975Z,11.35
2018-11-02T02:45:15.201Z,11.33
2018-11-02T02:47:42.499Z,11.42
2018-11-02T02:50:12.783Z,11.45
2018-11-02T02:52:44.549Z,11.48
2018-11-02T02:55:11.437Z,11.77
2018-11-02T02:57:40.370Z,11.61
2018-11-02T03:00:11.586Z,11.58
2018-11-02T03:02:40.590Z,11.87
2018-11-02T03:05:10.054Z,11.65
2018-11-02T03:07:39.590Z,11.66
2018-11-02T03:10:08.987Z,11.62
2018-11-02T03:12:38.271Z,11.53
2018-11-02T03:15:07.576Z,11.56
2018-11-02T03:17:37.064Z,11.54
2018-11-02T03:20:07.589Z,11.55
2018-11-02T03:22:36.663Z,11.56
2018-11-02T03:25:06.577Z,11.55
2018-11-02T03:27:38.119Z,11.48
2018-11-02T03:30:08.524Z,11.53
2018-11-02T03:32:37.479Z,11.45
2018-11-02T03:35:06.445Z,11.44
2018-11-02T03:37:35.359Z,11.39
2018-11-02T03:40:04.341Z,11.36
2018-11-02T03:42:33.338Z,11.30
2018-11-02T03:45:07.135Z,11.35
2018-11-02T03:47:31.354Z,11.31
2018-11-02T03:50:00.331Z,11.34
2018-11-02T03:52:29.229Z,11.32
2018-11-02T03:54:58.665Z,11.30
2018-11-02T03:57:27.609Z,11.31
2018-11-02T03:59:56.571Z,11.24
2018-11-02T04:02:25.567Z,11.24
2018-11-02T04:04:54.577Z,11.12
2018-11-02T04:07:25.632Z,11.53
2018-11-02T04:09:52.680Z,11.70
2018-11-02T04:12:26.164Z,11.81
2018-11-02T04:14:52.979Z,11.49
2018-11-02T04:17:23.688Z,11.38
2018-11-02T04:19:50.988Z,11.31
2018-11-02T04:22:19.901Z,11.18
2018-11-02T04:24:48.904Z,11.22
2018-11-02T04:27:17.804Z,11.18
2018-11-02T04:29:46.735Z,11.21
2018-11-02T04:32:15.638Z,11.08
2018-11-02T04:34:44.618Z,11.10
2018-11-02T04:37:13.632Z,11.15
2018-11-02T04:39:42.633Z,11.08
2018-11-02T04:42:11.569Z,11.08
2018-11-02T04:44:40.564Z,11.05
2018-11-02T04:47:09.587Z,11.04
2018-11-02T04:49:38.467Z,11.05
2018-11-02T04:52:07.494Z,11.06
2018-11-02T04:54:36.532Z,10.90
2018-11-02T04:57:08.043Z,11.25
2018-11-02T04:59:37.174Z,11.04
2018-11-02T05:02:06.268Z,11.02
2018-11-02T05:04:35.235Z,11.03
2018-11-02T05:07:04.288Z,10.90
2018-11-02T05:09:33.261Z,10.90
2018-11-02T05:12:02.201Z,10.84
2018-11-02T05:14:31.188Z,10.82
2018-11-02T05:17:00.157Z,11.08
2018-11-02T05:19:29.190Z,10.93
2018-11-02T05:21:58.225Z,10.76
2018-11-02T05:24:27.340Z,10.77
2018-11-02T05:26:56.268Z,10.76
2018-11-02T05:29:25.296Z,10.70
2018-11-02T05:31:54.314Z,10.65
2018-11-02T05:34:23.317Z,10.70
2018-11-02T05:36:52.310Z,10.68
2018-11-02T05:39:21.358Z,10.63
2018-11-02T05:41:50.348Z,10.67
2018-11-02T05:44:19.308Z,10.61
2018-11-02T05:46:48.304Z,10.52
2018-11-02T05:49:17.334Z,10.85
2018-11-02T05:51:46.303Z,10.66
2018-11-02T05:54:15.367Z,10.68
2018-11-02T05:56:44.260Z,10.56
2018-11-02T05:59:13.363Z,10.56
2018-11-02T06:01:45.197Z,10.44
2018-11-02T06:04:14.725Z,10.53
2018-11-02T06:06:43.727Z,10.49
2018-11-02T06:09:12.897Z,10.46
2018-11-02T06:11:46.337Z,10.44
2018-11-02T06:14:15.436Z,10.45
2018-11-02T06:16:44.469Z,10.46
2018-11-02T06:19:13.312Z,10.37
2018-11-02T06:21:44.696Z,10.34
2018-11-02T06:24:13.761Z,10.70
2018-11-02T06:26:42.671Z,10.40
2018-11-02T06:29:13.112Z,10.35
2018-11-02T06:31:42.896Z,10.33
2018-11-02T06:34:11.871Z,10.30
2018-11-02T06:36:41.127Z,10.23
2018-11-02T06:39:10.703Z,10.08
2018-11-02T06:41:39.949Z,10.15
2018-11-02T06:44:08.852Z,10.22
2018-11-02T06:46:42.826Z,10.23
2018-11-02T06:49:11.835Z,10.14
2018-11-02T06:51:40.946Z,10.12
2018-11-02T06:54:12.730Z,10.07
2018-11-02T06:56:41.792Z,10.08
2018-11-02T06:59:11.077Z,10.12
2018-11-02T07:01:40.090Z,10.06
2018-11-02T07:04:11.184Z,10.21
2018-11-02T07:06:42.683Z,10.16
2018-11-02T07:09:12.143Z,10.46
2018-11-02T07:11:41.223Z,10.19
2018-11-02T07:14:12.733Z,10.21
2018-11-02T07:16:41.741Z,10.65
2018-11-02T07:19:10.843Z,10.78
2018-11-02T07:21:40.168Z,10.38
2018-11-02T07:24:09.295Z,10.40
2018-11-02T07:26:42.538Z,10.79
2018-11-02T07:29:11.565Z,10.48
2018-11-02T07:31:40.570Z,10.27
2018-11-02T07:34:09.735Z,10.40
2018-11-02T07:36:38.715Z,10.39
2018-11-02T07:39:09.314Z,10.25
2018-11-02T07:41:38.384Z,10.34
2018-11-02T07:44:07.669Z,10.34
2018-11-02T07:46:36.703Z,10.39
2018-11-02T07:49:05.702Z,10.32
2018-11-02T07:51:34.768Z,10.33
2018-11-02T07:54:03.804Z,10.41
2018-11-02T07:56:35.361Z,10.35
2018-11-02T07:59:04.401Z,10.25
2018-11-02T08:01:35.558Z,10.32
2018-11-02T08:04:04.892Z,10.35
2018-11-02T08:06:33.885Z,10.36
2018-11-02T08:09:05.327Z,10.20
2018-11-02T08:11:33.996Z,10.39
2018-11-02T08:14:00.892Z,10.51
2018-11-02T08:16:34.338Z,10.51
2018-11-02T08:19:06.627Z,10.57
2018-11-02T08:21:37.323Z,10.52
2018-11-02T08:24:08.911Z,10.86
2018-11-02T08:26:37.836Z,10.66
2018-11-02T08:29:12.344Z,10.57
2018-11-02T08:31:38.867Z,10.49
2018-11-02T08:34:07.972Z,10.47
2018-11-02T08:36:37.028Z,10.53
2018-11-02T08:39:07.840Z,10.52
2018-11-02T08:41:38.772Z,10.44
2018-11-02T08:44:10.021Z,10.83
2018-11-02T08:46:39.297Z,10.69
2018-11-02T08:49:08.180Z,10.72
2018-11-02T08:51:37.262Z,10.91
2018-11-02T08:54:06.202Z,10.95
2018-11-02T08:56:35.245Z,10.95
2018-11-02T08:59:04.188Z,11.03
2018-11-02T09:01:35.536Z,11.13
2018-11-02T09:04:04.527Z,11.08
2018-11-02T09:06:33.435Z,10.94
2018-11-02T09:09:02.438Z,11.14
2018-11-02T09:11:31.372Z,11.21
2018-11-02T09:14:00.312Z,11.36
2018-11-02T09:16:29.218Z,11.46
2018-11-02T09:18:58.197Z,11.39
2018-11-02T09:21:27.749Z,11.55
2018-11-02T09:23:56.464Z,11.67
2018-11-02T09:26:25.887Z,11.85
2018-11-02T09:28:55.149Z,12.18
2018-11-02T09:31:24.118Z,12.61
2018-11-02T09:33:53.102Z,12.76
2018-11-02T09:36:21.963Z,12.86
2018-11-02T09:38:50.918Z,13.05
2018-11-02T09:41:19.860Z,13.18
2018-11-02T09:43:48.837Z,12.71
2018-11-02T09:46:17.809Z,12.57
2018-11-02T09:48:46.802Z,12.52
2018-11-02T09:51:15.806Z,12.84
2018-11-02T09:53:44.729Z,13.01
2018-11-02T09:56:13.636Z,12.60
2018-11-02T09:58:42.583Z,12.60
2018-11-02T10:01:11.645Z,12.72
2018-11-02T10:03:40.634Z,13.36
2018-11-02T10:06:12.046Z,13.63
2018-11-02T10:08:38.539Z,13.79
2018-11-02T10:11:09.037Z,14.08
2018-11-02T10:13:36.754Z,14.17
2018-11-02T10:16:06.829Z,14.67
2018-11-02T10:18:35.878Z,14.75
2018-11-02T10:21:05.245Z,15.20
2018-11-02T10:23:34.175Z,15.69
2018-11-02T10:26:03.169Z,16.48
2018-11-02T10:28:32.204Z,17.05
2018-11-02T10:31:01.156Z,18.49
2018-11-02T10:33:30.167Z,19.37
2018-11-02T10:35:59.215Z,19.35
2018-11-02T10:38:28.528Z,20.86
2018-11-02T10:41:01.033Z,20.24
2018-11-02T10:43:31.069Z,19.38
2018-11-02T10:46:01.152Z,19.69
2018-11-02T10:48:30.665Z,19.66
2018-11-02T10:50:59.798Z,19.86
2018-11-02T10:53:28.637Z,18.56
2018-11-02T10:55:59.839Z,18.23
2018-11-02T10:58:28.873Z,19.31
2018-11-02T11:01:15.270Z,18.91
2018-11-02T11:03:44.251Z,17.75
2018-11-02T11:06:13.244Z,17.40
2018-11-02T11:08:42.231Z,17.29
2018-11-02T11:11:11.229Z,18.77
2018-11-02T11:13:40.630Z,19.05
2018-11-02T11:16:09.124Z,19.91
2018-11-02T11:18:38.167Z,20.08
2018-11-02T11:21:09.750Z,19.62
2018-11-02T11:23:36.311Z,20.07
2018-11-02T11:26:05.521Z,20.07
2018-11-02T11:28:39.458Z,19.48
2018-11-02T11:31:03.597Z,18.89
2018-11-02T11:33:32.526Z,18.43
2018-11-02T11:36:01.479Z,17.90
2018-11-02T11:38:30.426Z,16.87
2018-11-02T11:41:00.268Z,16.96
2018-11-02T11:43:29.079Z,16.47
2018-11-02T11:45:58.122Z,16.38
2018-11-02T11:48:27.042Z,15.88
2018-11-02T11:50:55.925Z,15.73
2018-11-02T11:53:27.742Z,15.20
2018-11-02T11:55:56.767Z,14.81
2018-11-02T11:58:25.645Z,14.83
2018-11-02T12:00:54.575Z,14.67
2018-11-02T12:03:23.603Z,14.80
2018-11-02T12:05:52.472Z,15.03
2018-11-02T12:08:23.913Z,14.93
2018-11-02T12:10:52.880Z,15.22
2018-11-02T12:13:21.826Z,14.99
2018-11-02T12:15:50.922Z,15.07
2018-11-02T12:18:19.859Z,15.20
2018-11-02T12:20:48.834Z,14.81
2018-11-02T12:23:17.894Z,14.68
2018-11-02T12:25:46.848Z,14.41
2018-11-02T12:28:16.012Z,14.59
2018-11-02T12:30:44.981Z,14.22
2018-11-02T12:33:13.970Z,14.08
2018-11-02T12:35:42.963Z,13.92
2018-11-02T12:38:11.907Z,13.73
2018-11-02T12:40:40.854Z,13.61
2018-11-02T12:43:09.919Z,13.57
2018-11-02T12:45:38.873Z,13.48
2018-11-02T12:48:08.096Z,13.47
2018-11-02T12:50:36.935Z,13.47
2018-11-02T12:53:06.251Z,13.45
2018-11-02T12:55:35.200Z,13.48
2018-11-02T12:58:04.171Z,13.59
2018-11-02T13:00:33.156Z,13.83
2018-11-02T13:03:02.111Z,13.92
2018-11-02T13:05:31.131Z,14.18
2018-11-02T13:08:02.655Z,14.39
2018-11-02T13:10:31.630Z,14.52
2018-11-02T13:13:00.628Z,14.38
2018-11-02T13:15:30.494Z,14.36
2018-11-02T13:17:59.480Z,14.40
2018-11-02T13:20:28.390Z,14.32
2018-11-02T13:22:57.318Z,14.19
2018-11-02T13:25:26.302Z,14.17
2018-11-02T13:27:55.318Z,14.22
2018-11-02T13:30:24.473Z,14.12
2018-11-02T13:32:53.220Z,13.87
2018-11-02T13:35:22.245Z,13.71
2018-11-02T13:37:53.677Z,13.79
2018-11-02T13:40:22.618Z,13.87
2018-11-02T13:42:51.579Z,14.00
2018-11-02T13:45:20.441Z,14.04
2018-11-02T13:47:51.814Z,14.12
2018-11-02T13:50:18.511Z,14.10
2018-11-02T13:52:47.422Z,14.31
2018-11-02T13:55:16.412Z,14.10
2018-11-02T13:57:45.324Z,14.10
2018-11-02T14:00:15.868Z,14.17
2018-11-02T14:02:44.829Z,14.17
2018-11-02T14:05:17.031Z,14.24
2018-11-02T14:07:46.109Z,14.38
2018-11-02T14:10:15.185Z,14.36
2018-11-02T14:12:44.038Z,14.43
2018-11-02T14:15:14.248Z,14.49
2018-11-02T14:17:43.611Z,14.43
2018-11-02T14:20:13.389Z,14.48
2018-11-02T14:22:42.414Z,14.07
2018-11-02T14:25:13.113Z,13.87
2018-11-02T14:27:42.055Z,13.84
2018-11-02T14:30:13.006Z,13.59
2018-11-02T14:32:42.010Z,13.59
2018-11-02T14:35:11.062Z,13.52
2018-11-02T14:37:40.105Z,13.45
2018-11-02T14:40:10.020Z,13.33
2018-11-02T14:42:39.727Z,13.38
2018-11-02T14:45:10.710Z,13.36
2018-11-02T14:47:39.797Z,13.51
2018-11-02T14:50:09.381Z,13.29
2018-11-02T14:52:38.571Z,13.31
2018-11-02T14:55:07.777Z,13.33
2018-11-02T14:57:36.792Z,12.99
2018-11-02T15:00:07.285Z,13.17
2018-11-02T15:02:36.261Z,12.87
2018-11-02T15:05:05.516Z,12.73
2018-11-02T15:07:34.506Z,12.92
2018-11-02T15:10:03.491Z,12.56
2018-11-02T15:12:32.484Z,12.53
2018-11-02T15:15:01.556Z,12.29
2018-11-02T15:17:30.580Z,12.24
2018-11-02T15:19:59.627Z,11.99
2018-11-02T15:22:28.582Z,11.96
2018-11-02T15:24:57.857Z,11.94
2018-11-02T15:27:26.815Z,11.85
2018-11-02T15:29:55.839Z,11.73
2018-11-02T15:32:24.739Z,11.64
2018-11-02T15:34:53.679Z,11.65
2018-11-02T15:37:22.740Z,11.85
2018-11-02T15:39:51.718Z,11.61
2018-11-02T15:42:20.816Z,11.50
2018-11-02T15:44:50.569Z,11.31
2018-11-02T15:47:21.711Z,11.28
2018-11-02T15:49:50.679Z,11.30
2018-11-02T15:52:19.936Z,11.23
2018-11-02T15:54:50.864Z,11.15
2018-11-02T15:57:19.717Z,11.17
2018-11-02T15:59:48.857Z,11.01
2018-11-02T16:02:17.802Z,10.93
2018-11-02T16:04:46.894Z,10.89
2018-11-02T16:07:15.877Z,10.77
2018-11-02T16:09:44.821Z,10.76
2018-11-02T16:12:13.817Z,10.72
2018-11-02T16:14:42.811Z,10.56
2018-11-02T16:17:11.743Z,10.52
2018-11-02T16:19:40.785Z,10.49
2018-11-02T16:22:09.831Z,10.43
2018-11-02T16:24:42.796Z,10.35
2018-11-02T16:27:11.692Z,10.28
2018-11-02T16:29:40.680Z,10.16
2018-11-02T16:32:12.202Z,10.20
2018-11-02T16:34:38.793Z,10.46
2018-11-02T16:37:07.761Z,10.12
2018-11-02T16:39:36.807Z,9.93
2018-11-02T16:42:07.784Z,9.82
2018-11-02T16:44:37.567Z,9.76
2018-11-02T16:47:04.358Z,9.64
2018-11-02T16:49:33.651Z,9.59
2018-11-02T16:52:04.693Z,9.93
2018-11-02T16:54:32.158Z,9.65
2018-11-02T16:57:01.043Z,9.95
2018-11-02T16:59:32.938Z,10.02
2018-11-02T17:02:03.530Z,9.63
2018-11-02T17:04:36.810Z,9.50
2018-11-02T17:07:07.095Z,9.35
2018-11-02T17:09:33.168Z,9.17
2018-11-02T17:12:02.205Z,9.04
2018-11-02T17:14:31.284Z,9.26
2018-11-02T17:17:02.487Z,8.93
2018-11-02T17:19:31.338Z,8.81
2018-11-02T17:22:02.985Z,8.65
2018-11-02T17:24:32.001Z,8.51
2018-11-02T17:27:00.918Z,8.42
2018-11-02T17:29:32.905Z,8.33
2018-11-02T17:32:01.801Z,8.19
2018-11-02T17:34:30.745Z,8.21
2018-11-02T17:36:59.676Z,8.25
2018-11-02T17:39:28.650Z,8.18
2018-11-02T17:41:57.668Z,8.46
2018-11-02T17:44:26.581Z,8.08
2018-11-02T17:46:57.289Z,7.99
2018-11-02T17:49:29.422Z,7.88
2018-11-02T17:51:59.612Z,7.82
2018-11-02T17:54:31.974Z,7.69
2018-11-02T17:57:02.597Z,7.69
2018-11-02T17:59:31.658Z,7.64
2018-11-02T18:02:00.677Z,7.63
2018-11-02T18:04:29.630Z,7.59
2018-11-02T18:06:58.624Z,7.49
2018-11-02T18:09:33.592Z,7.39
2018-11-02T18:12:02.561Z,7.36
2018-11-02T18:14:31.645Z,7.68
2018-11-02T18:17:00.553Z,7.42
2018-11-02T18:19:29.488Z,7.31
2018-11-02T18:21:58.683Z,7.33
2018-11-02T18:24:27.678Z,7.28
2018-11-02T18:26:56.625Z,7.20
2018-11-02T18:29:25.631Z,7.52
2018-11-02T18:31:54.749Z,7.22
2018-11-02T18:34:23.758Z,7.13
2018-11-02T18:36:52.736Z,7.12
2018-11-02T18:39:21.757Z,7.11
2018-11-02T18:41:50.707Z,7.46
2018-11-02T18:44:19.631Z,7.21
2018-11-02T18:46:48.635Z,7.21
2018-11-02T18:49:17.584Z,7.12
2018-11-02T18:51:46.637Z,7.09
2018-11-02T18:54:21.186Z,7.10
2018-11-02T18:56:50.358Z,7.11
2018-11-02T18:59:19.313Z,7.03
2018-11-02T19:01:48.249Z,7.03
2018-11-02T19:04:17.291Z,6.94
2018-11-02T19:06:46.275Z,6.84
2018-11-02T19:09:16.250Z,6.72
2018-11-02T19:11:45.158Z,6.65
2018-11-02T19:14:14.225Z,6.66
2018-11-02T19:16:43.205Z,6.57
2018-11-02T19:19:12.165Z,6.51
2018-11-02T19:21:41.275Z,6.46
2018-11-02T19:24:13.565Z,6.49
2018-11-02T19:26:42.497Z,6.37
2018-11-02T19:29:11.460Z,6.26
2018-11-02T19:31:40.324Z,6.22
2018-11-02T19:34:09.674Z,6.14
2018-11-02T19:36:38.624Z,6.07
2018-11-02T19:39:09.099Z,5.98
2018-11-02T19:41:41.249Z,5.91
2018-11-02T19:44:10.314Z,5.87
2018-11-02T19:46:39.338Z,5.82
2018-11-02T19:49:11.152Z,5.74
2018-11-02T19:51:39.947Z,5.71
2018-11-02T19:54:08.943Z,5.72
2018-11-02T19:56:40.183Z,5.59
2018-11-02T19:59:09.226Z,5.56
2018-11-02T20:01:40.864Z,5.53
2018-11-02T20:04:09.923Z,5.46
2018-11-02T20:06:38.864Z,5.39
2018-11-02T20:09:10.495Z,5.26
2018-11-02T20:11:39.608Z,5.26
2018-11-02T20:14:09.173Z,5.35
2018-11-02T20:16:38.126Z,5.40
2018-11-02T20:19:07.170Z,5.26
2018-11-02T20:21:36.262Z,5.31
2018-11-02T20:24:05.338Z,5.44
2018-11-02T20:26:34.181Z,5.52
2018-11-02T20:29:03.172Z,5.54
2018-11-02T20:31:32.146Z,5.49
2018-11-02T20:34:01.155Z,5.41
2018-11-02T20:36:31.792Z,5.40
2018-11-02T20:39:00.839Z,5.36
2018-11-02T20:41:29.754Z,5.29
2018-11-02T20:43:58.915Z,5.29
2018-11-02T20:46:27.831Z,5.30
2018-11-02T20:48:56.945Z,5.23
2018-11-02T20:51:25.736Z,5.26
2018-11-02T20:53:54.703Z,5.22
2018-11-02T20:56:23.585Z,5.23
2018-11-02T20:58:52.533Z,5.22
2018-11-02T21:01:21.516Z,5.56
2018-11-02T21:03:50.444Z,5.30
2018-11-02T21:06:19.490Z,5.22
2018-11-02T21:08:48.772Z,5.16
2018-11-02T21:11:17.597Z,5.14
2018-11-02T21:13:46.557Z,5.12
2018-11-02T21:16:15.520Z,5.20
2018-11-02T21:18:44.531Z,5.17
2018-11-02T21:21:13.606Z,5.03
2018-11-02T21:23:42.544Z,4.88
2018-11-02T21:26:11.544Z,4.81
2018-11-02T21:28:40.602Z,4.84
2018-11-02T21:31:09.521Z,4.83
2018-11-02T21:33:38.430Z,4.74
2018-11-02T21:36:07.441Z,5.01
2018-11-02T21:38:36.547Z,4.76
2018-11-02T21:41:05.475Z,4.73
2018-11-02T21:43:34.388Z,4.68
2018-11-02T21:46:03.385Z,4.95
2018-11-02T21:48:32.350Z,4.57
2018-11-02T21:51:02.705Z,4.41
2018-11-02T21:53:31.683Z,4.50
2018-11-02T21:56:00.683Z,4.42
2018-11-02T21:58:29.774Z,4.71
2018-11-02T22:00:58.639Z,4.39
2018-11-02T22:03:27.592Z,4.37
2018-11-02T22:05:57.090Z,4.70
2018-11-02T22:08:31.527Z,4.34
2018-11-02T22:11:05.286Z,4.25
2018-11-02T22:13:34.815Z,4.20
2018-11-02T22:16:01.622Z,4.17
2018-11-02T22:18:31.029Z,4.19
2018-11-02T22:20:59.931Z,4.16
2018-11-02T22:23:28.946Z,4.26
2018-11-02T22:25:58.411Z,4.18
2018-11-02T22:28:27.442Z,4.07
2018-11-02T22:30:56.558Z,4.33
2018-11-02T22:33:25.738Z,4.03
2018-11-02T22:35:56.783Z,3.83
2018-11-02T22:38:25.985Z,3.70
2018-11-02T22:40:54.957Z,3.69
2018-11-02T22:43:23.905Z,3.68
2018-11-02T22:45:57.430Z,4.07
2018-11-02T22:48:29.908Z,3.74
2018-11-02T22:51:00.542Z,3.68
2018-11-02T22:53:31.303Z,3.68
2018-11-02T22:56:01.863Z,3.68
2018-11-02T22:58:32.441Z,3.66
2018-11-02T23:01:23.472Z,3.68
2018-11-02T23:04:00.347Z,3.68
2018-11-02T23:06:28.670Z,3.63
2018-11-02T23:08:57.577Z,3.65
2018-11-02T23:11:28.779Z,3.73
2018-11-02T23:13:55.491Z,3.69
2018-11-02T23:16:24.456Z,3.64
2018-11-02T23:18:53.458Z,3.70
2018-11-02T23:21:22.466Z,3.69
2018-11-02T23:23:51.423Z,3.62
2018-11-02T23:26:20.352Z,3.61
2018-11-02T23:28:50.997Z,3.68
2018-11-02T23:31:18.281Z,3.74
2018-11-02T23:33:47.238Z,3.69
2018-11-02T23:36:16.222Z,3.60
2018-11-02T23:38:45.166Z,3.56
2018-11-02T23:41:14.053Z,3.56
2018-11-02T23:43:43.048Z,3.58
2018-11-02T23:46:11.961Z,3.59
2018-11-02T23:48:40.952Z,3.61
2018-11-02T23:51:10.012Z,3.61
2018-11-02T23:53:38.994Z,3.66
2018-11-02T23:56:07.944Z,3.64
2018-11-02T23:58:36.929Z,3.51
